createdAt,value
2022-11-19T00:03:19.545Z,6.45
2022-11-19T00:08:11.261Z,6.36
2022-11-19T00:13:05.109Z,6.30
2022-11-19T00:17:59.252Z,6.24
2022-11-19T00:22:59.935Z,6.22
2022-11-19T00:27:51.043Z,6.22
2022-11-19T00:32:43.983Z,6.22
2022-11-19T00:37:38.958Z,6.23
2022-11-19T00:42:36.917Z,6.17
2022-11-19T00:47:28.319Z,6.12
2022-11-19T00:52:20.112Z,6.07
2022-11-19T00:57:11.013Z,6.10
2022-11-19T01:02:05.723Z,6.08
2022-11-19T01:06:57.050Z,6.06
2022-11-19T01:11:49.174Z,6.09
2022-11-19T01:16:46.737Z,6.09
2022-11-19T01:21:43.445Z,6.10
2022-11-19T01:26:40.565Z,6.04
2022-11-19T01:31:39.150Z,6.06
2022-11-19T01:36:39.120Z,6.03
2022-11-19T01:41:35.146Z,6.04
2022-11-19T01:46:32.720Z,5.98
2022-11-19T01:51:32.079Z,5.90
2022-11-19T01:56:29.704Z,5.81
2022-11-19T02:01:29.277Z,5.66
2022-11-19T02:06:22.132Z,5.54
2022-11-19T02:11:34.541Z,5.44
2022-11-19T02:16:36.462Z,5.29
2022-11-19T02:21:44.734Z,5.23
2022-11-19T02:27:04.876Z,5.16
2022-11-19T02:32:19.335Z,5.07
2022-11-19T02:37:17.017Z,5.08
2022-11-19T02:42:21.153Z,5.06
2022-11-19T02:47:23.688Z,4.97
2022-11-19T02:52:16.213Z,4.89
2022-11-19T02:57:08.351Z,4.85
2022-11-19T03:02:11.762Z,4.78
2022-11-19T03:07:10.803Z,4.66
2022-11-19T03:12:15.925Z,4.68
2022-11-19T03:17:15.276Z,4.69
2022-11-19T03:22:17.428Z,4.69
2022-11-19T03:27:20.733Z,4.66
2022-11-19T03:32:19.717Z,4.47
2022-11-19T03:37:38.535Z,4.54
2022-11-19T03:42:42.617Z,4.54
2022-11-19T03:47:41.127Z,4.51
2022-11-19T03:52:42.545Z,4.44
2022-11-19T03:57:45.315Z,4.48
2022-11-19T04:02:38.772Z,4.49
2022-11-19T04:07:31.314Z,4.54
2022-11-19T04:12:34.980Z,4.52
2022-11-19T04:17:25.786Z,4.47
2022-11-19T04:22:21.430Z,4.40
2022-11-19T04:27:21.680Z,4.28
2022-11-19T04:32:17.053Z,4.26
2022-11-19T04:37:08.616Z,4.19
2022-11-19T04:41:59.820Z,4.17
2022-11-19T04:46:50.631Z,4.16
2022-11-19T04:51:44.187Z,4.14
2022-11-19T04:56:42.145Z,4.04
2022-11-19T05:01:34.673Z,4.06
2022-11-19T05:06:27.567Z,4.00
2022-11-19T05:11:24.951Z,4.06
2022-11-19T05:16:19.233Z,3.98
2022-11-19T05:21:10.977Z,3.91
2022-11-19T05:26:05.198Z,3.91
2022-11-19T05:31:04.700Z,3.84
2022-11-19T05:36:00.531Z,3.84
2022-11-19T05:40:51.443Z,3.86
2022-11-19T05:45:42.670Z,3.86
2022-11-19T05:50:36.715Z,3.84
2022-11-19T05:55:31.065Z,3.78
2022-11-19T06:00:22.877Z,3.68
2022-11-19T06:05:17.931Z,3.65
2022-11-19T06:10:17.958Z,3.50
2022-11-19T06:15:10.104Z,3.40
2022-11-19T06:20:05.004Z,3.34
2022-11-19T06:25:00.377Z,3.37
2022-11-19T06:29:56.987Z,3.31
2022-11-19T06:34:49.527Z,3.26
2022-11-19T06:39:43.839Z,3.22
2022-11-19T06:44:36.365Z,3.25
2022-11-19T06:49:38.533Z,3.26
2022-11-19T06:54:29.657Z,3.15
2022-11-19T06:59:23.160Z,3.10
2022-11-19T07:04:14.724Z,3.11
2022-11-19T07:09:11.540Z,3.05
2022-11-19T07:14:06.242Z,3.01
2022-11-19T07:19:02.356Z,3.01
2022-11-19T07:23:53.161Z,2.88
2022-11-19T07:28:48.817Z,2.95
2022-11-19T07:33:41.521Z,2.91
2022-11-19T07:38:37.168Z,2.82
2022-11-19T07:43:30.150Z,2.82
2022-11-19T07:48:30.795Z,2.79
2022-11-19T07:53:24.290Z,2.85
2022-11-19T07:58:22.489Z,2.82
2022-11-19T08:03:15.779Z,2.80
2022-11-19T08:08:13.529Z,2.85
2022-11-19T08:13:12.282Z,2.92
2022-11-19T08:18:17.431Z,2.97
2022-11-19T08:23:29.301Z,3.01
2022-11-19T08:28:21.049Z,2.97
2022-11-19T08:33:27.217Z,2.90
2022-11-19T08:38:27.981Z,2.90
2022-11-19T08:43:23.548Z,2.91
2022-11-19T08:48:17.633Z,2.88
2022-11-19T08:53:10.354Z,2.89
2022-11-19T08:58:12.766Z,2.90
2022-11-19T09:03:04.657Z,2.74
2022-11-19T09:08:01.692Z,2.82
2022-11-19T09:12:55.794Z,2.84
2022-11-19T09:17:56.634Z,2.84
2022-11-19T09:22:51.087Z,2.87
2022-11-19T09:27:43.384Z,2.88
2022-11-19T09:32:43.266Z,2.85
2022-11-19T09:37:46.167Z,2.94
2022-11-19T09:42:54.360Z,2.87
2022-11-19T09:48:02.254Z,2.88
2022-11-19T09:53:07.026Z,2.92
2022-11-19T09:58:05.218Z,2.90
2022-11-19T10:03:07.267Z,2.97
2022-11-19T10:08:23.339Z,3.02
2022-11-19T10:13:32.596Z,3.05
2022-11-19T10:18:37.276Z,3.15
2022-11-19T10:23:45.914Z,2.99
2022-11-19T10:28:43.375Z,3.01
2022-11-19T10:33:45.591Z,2.69
2022-11-19T10:38:55.125Z,2.57
2022-11-19T10:43:56.337Z,2.53
2022-11-19T10:48:54.241Z,2.50
2022-11-19T10:53:49.859Z,2.44
2022-11-19T10:58:42.782Z,2.42
2022-11-19T11:03:38.216Z,2.43
2022-11-19T11:08:59.285Z,2.39
2022-11-19T11:14:15.988Z,2.21
2022-11-19T11:19:15.157Z,2.24
2022-11-19T11:24:07.271Z,2.21
2022-11-19T11:29:09.603Z,2.28
2022-11-19T11:34:05.478Z,2.35
2022-11-19T11:38:57.915Z,2.45
2022-11-19T11:44:01.877Z,2.46
2022-11-19T11:54:16.618Z,2.47
2022-11-19T11:59:33.690Z,2.48
2022-11-19T12:04:33.691Z,2.55
2022-11-19T12:09:46.171Z,2.44
2022-11-19T12:20:05.132Z,2.39
2022-11-19T12:25:22.551Z,2.34
2022-11-19T12:30:24.257Z,2.33
2022-11-19T12:35:38.602Z,2.29
2022-11-19T12:40:41.707Z,2.36
2022-11-19T12:45:37.242Z,2.34
2022-11-19T12:50:40.312Z,2.29
2022-11-19T12:55:37.485Z,2.39
2022-11-19T13:00:30.315Z,2.48
2022-11-19T13:05:24.255Z,2.54
2022-11-19T13:10:21.993Z,2.49
2022-11-19T13:15:19.557Z,2.49
2022-11-19T13:20:15.808Z,2.53
2022-11-19T13:25:14.195Z,2.55
2022-11-19T13:30:11.391Z,2.58
2022-11-19T13:35:15.435Z,2.51
2022-11-19T13:40:14.963Z,2.57
2022-11-19T13:45:13.114Z,2.60
2022-11-19T13:50:07.892Z,2.64
2022-11-19T13:55:02.070Z,2.73
2022-11-19T13:59:57.340Z,2.72
2022-11-19T14:05:18.462Z,2.71
2022-11-19T14:10:18.430Z,2.74
2022-11-19T14:15:40.868Z,2.76
2022-11-19T14:20:52.838Z,2.78
2022-11-19T14:26:03.324Z,2.78
2022-11-19T14:31:11.466Z,2.80
2022-11-19T14:36:02.629Z,2.81
2022-11-19T14:41:04.774Z,2.79
2022-11-19T14:46:09.846Z,2.78
2022-11-19T14:51:01.179Z,2.76
2022-11-19T14:55:56.740Z,2.80
2022-11-19T15:01:18.008Z,2.77
2022-11-19T15:06:24.813Z,2.75
2022-11-19T15:11:25.235Z,2.72
2022-11-19T15:16:25.668Z,2.72
2022-11-19T15:21:25.974Z,2.72
2022-11-19T15:26:21.767Z,2.73
2022-11-19T15:31:19.535Z,2.75
2022-11-19T15:36:25.985Z,2.78
2022-11-19T15:41:24.364Z,2.77
2022-11-19T15:46:18.154Z,2.78
2022-11-19T15:51:10.527Z,2.83
2022-11-19T15:56:02.173Z,2.84
2022-11-19T16:00:58.350Z,2.83
2022-11-19T16:06:05.813Z,2.89
2022-11-19T16:11:22.516Z,2.93
2022-11-19T16:16:46.401Z,2.91
2022-11-19T16:21:43.793Z,2.92
2022-11-19T16:26:42.706Z,2.92
2022-11-19T16:31:38.582Z,2.91
2022-11-19T16:36:33.301Z,2.93
2022-11-19T16:41:36.314Z,2.94
2022-11-19T16:46:35.141Z,2.91
2022-11-19T16:51:37.282Z,2.92
2022-11-19T16:56:30.643Z,2.95
2022-11-19T17:01:23.460Z,2.96
2022-11-19T17:06:26.927Z,2.96
2022-11-19T17:11:37.855Z,2.88
2022-11-19T17:16:31.123Z,2.86
2022-11-19T17:21:27.927Z,2.89
2022-11-19T17:26:25.917Z,2.87
2022-11-19T17:31:28.665Z,2.90
2022-11-19T17:36:26.928Z,2.84
2022-11-19T17:41:39.591Z,2.85
2022-11-19T17:46:35.784Z,2.83
2022-11-19T17:51:34.506Z,2.75
2022-11-19T17:56:27.545Z,2.75
2022-11-19T18:01:18.537Z,2.68
2022-11-19T18:06:14.498Z,2.65
2022-11-19T18:11:05.282Z,2.59
2022-11-19T18:15:55.845Z,2.54
2022-11-19T18:20:47.168Z,2.52
2022-11-19T18:25:41.277Z,2.49
2022-11-19T18:30:32.471Z,2.43
2022-11-19T18:35:26.329Z,2.40
2022-11-19T18:40:19.834Z,2.40
2022-11-19T18:45:13.368Z,2.37
2022-11-19T18:50:04.309Z,2.27
2022-11-19T18:54:56.697Z,2.12
2022-11-19T18:59:47.698Z,2.00
2022-11-19T19:04:41.248Z,1.87
2022-11-19T19:09:35.657Z,1.82
2022-11-19T19:14:27.339Z,1.79
2022-11-19T19:19:20.511Z,1.77
2022-11-19T19:24:15.732Z,1.73
2022-11-19T19:29:06.546Z,1.66
2022-11-19T19:34:06.077Z,1.64
2022-11-19T19:38:56.771Z,1.65
2022-11-19T19:43:51.029Z,1.61
2022-11-19T19:48:43.720Z,1.54
2022-11-19T19:53:35.111Z,1.47
2022-11-19T19:58:28.076Z,1.45
2022-11-19T20:03:22.783Z,1.34
2022-11-19T20:08:13.989Z,1.18
2022-11-19T20:13:19.433Z,1.07
2022-11-19T20:18:13.232Z,1.00
2022-11-19T20:23:11.602Z,0.92
2022-11-19T20:28:08.109Z,0.85
2022-11-19T20:32:58.619Z,0.80
2022-11-19T20:37:57.512Z,0.75
2022-11-19T20:43:17.315Z,0.72
2022-11-19T20:48:10.228Z,0.70
2022-11-19T20:53:03.792Z,0.74
2022-11-19T20:58:00.644Z,0.78
2022-11-19T21:02:52.180Z,0.82
2022-11-19T21:07:43.378Z,0.90
2022-11-19T21:12:34.030Z,0.92
2022-11-19T21:17:29.483Z,0.96
2022-11-19T21:22:19.978Z,0.95
2022-11-19T21:27:11.843Z,0.91
2022-11-19T21:32:08.132Z,0.84
2022-11-19T21:37:02.917Z,0.72
2022-11-19T21:41:53.589Z,0.59
2022-11-19T21:46:44.723Z,0.53
2022-11-19T21:51:35.079Z,0.44
2022-11-19T21:56:36.890Z,0.35
2022-11-19T22:01:29.090Z,0.29
2022-11-19T22:06:21.483Z,0.20
2022-11-19T22:11:25.205Z,0.15
2022-11-19T22:16:18.617Z,0.06
2022-11-19T22:21:10.020Z,-0.03
2022-11-19T22:26:01.867Z,-0.07
2022-11-19T22:30:56.420Z,-0.12
2022-11-19T22:35:49.631Z,-0.15
2022-11-19T22:40:43.965Z,-0.17
2022-11-19T22:45:35.001Z,-0.19
2022-11-19T22:50:29.236Z,-0.29
2022-11-19T22:55:22.553Z,-0.36
2022-11-19T23:00:14.432Z,-0.40
2022-11-19T23:05:07.132Z,-0.44
2022-11-19T23:09:57.397Z,-0.43
2022-11-19T23:14:51.672Z,-0.43
2022-11-19T23:19:42.708Z,-0.41
2022-11-19T23:24:34.573Z,-0.38
2022-11-19T23:29:27.561Z,-0.37
2022-11-19T23:34:22.287Z,-0.44
2022-11-19T23:39:17.968Z,-0.55
2022-11-19T23:44:09.043Z,-0.51
2022-11-19T23:49:00.828Z,-0.50
2022-11-19T23:53:57.930Z,-0.56
2022-11-19T23:58:51.460Z,-0.61
